createdAt,value
2023-04-15T00:01:32.898Z,6.07
2023-04-15T00:04:03.167Z,5.10
2023-04-15T00:06:33.518Z,5.07
2023-04-15T00:09:03.986Z,6.73
2023-04-15T00:11:36.861Z,4.70
2023-04-15T00:14:07.597Z,5.60
2023-04-15T00:16:37.869Z,5.37
2023-04-15T00:19:08.515Z,5.27
2023-04-15T00:21:38.864Z,8.10
2023-04-15T00:24:09.225Z,10.47
2023-04-15T00:26:42.625Z,5.43
2023-04-15T00:29:15.017Z,5.90
2023-04-15T00:31:47.577Z,5.23
2023-04-15T00:34:17.779Z,4.10
2023-04-15T00:36:48.025Z,5.30
2023-04-15T00:39:19.115Z,5.00
2023-04-15T00:41:52.331Z,6.13
2023-04-15T00:44:22.618Z,4.10
2023-04-15T00:46:55.003Z,3.80
2023-04-15T00:49:25.667Z,5.50
2023-04-15T00:51:55.961Z,3.50
2023-04-15T00:54:26.738Z,3.43
2023-04-15T00:57:01.898Z,4.03
2023-04-15T00:59:35.786Z,5.17
2023-04-15T01:02:07.223Z,4.73
2023-04-15T01:04:41.112Z,7.33
2023-04-15T01:07:11.426Z,3.13
2023-04-15T01:09:41.826Z,8.53
2023-04-15T01:12:18.350Z,4.50
2023-04-15T01:14:48.591Z,4.57
2023-04-15T01:17:19.278Z,3.80
2023-04-15T01:19:49.650Z,5.90
2023-04-15T01:22:21.245Z,6.50
2023-04-15T01:25:00.982Z,5.17
2023-04-15T01:27:33.878Z,4.73
2023-04-15T01:30:07.649Z,5.87
2023-04-15T01:32:37.902Z,5.93
2023-04-15T01:35:09.328Z,5.23
2023-04-15T01:37:41.254Z,5.53
2023-04-15T01:40:14.008Z,6.00
2023-04-15T01:42:46.838Z,3.93
2023-04-15T01:45:22.064Z,4.33
2023-04-15T01:47:52.365Z,4.17
2023-04-15T01:50:23.543Z,4.87
2023-04-15T03:14:07.910Z,7.50
2023-04-15T04:05:32.480Z,2.80
2023-04-15T04:29:43.412Z,5.97
2023-04-15T11:20:35.083Z,3.95
2023-04-15T11:23:14.677Z,4.50
2023-04-15T11:25:46.798Z,11.23
2023-04-15T11:28:17.416Z,7.30
2023-04-15T11:30:48.438Z,6.88
2023-04-15T12:37:52.844Z,4.53
2023-04-15T12:45:49.086Z,5.95
2023-04-15T12:48:21.078Z,4.75
2023-04-15T12:50:51.593Z,4.72
2023-04-15T12:53:24.545Z,5.13
2023-04-15T12:55:54.928Z,4.85
2023-04-15T12:58:25.245Z,4.50
2023-04-15T13:00:55.497Z,4.80
2023-04-15T13:03:27.277Z,3.97
2023-04-15T13:05:57.967Z,4.40
2023-04-15T13:08:30.873Z,4.10
2023-04-15T13:11:01.716Z,4.30
2023-04-15T13:13:32.299Z,3.88
2023-04-15T13:16:02.763Z,3.85
2023-04-15T13:18:35.433Z,4.25
2023-04-15T13:21:07.720Z,3.90
2023-04-15T13:23:40.749Z,5.38
2023-04-15T13:26:11.174Z,6.05
2023-04-15T13:28:41.554Z,5.50
2023-04-15T13:31:11.932Z,6.00
2023-04-15T13:33:42.206Z,8.00
2023-04-15T13:36:15.635Z,6.30
2023-04-15T13:38:51.148Z,5.75
2023-04-15T13:41:22.886Z,6.43
2023-04-15T13:43:55.617Z,7.15
2023-04-15T13:46:26.263Z,9.85
2023-04-15T13:48:57.109Z,6.10
2023-04-15T13:51:27.358Z,4.65
2023-04-15T13:54:00.152Z,5.10
2023-04-15T13:56:32.397Z,5.75
2023-04-15T13:59:15.756Z,7.30
2023-04-15T14:01:46.153Z,10.13
2023-04-15T14:04:19.925Z,12.45
2023-04-15T14:06:51.095Z,12.13
2023-04-15T14:09:26.166Z,12.07
2023-04-15T14:11:59.156Z,11.35
2023-04-15T14:14:29.382Z,11.90
2023-04-15T14:17:00.296Z,10.68
2023-04-15T14:19:32.821Z,10.52
2023-04-15T14:22:03.628Z,11.40
2023-04-15T14:24:36.413Z,11.97
2023-04-15T14:27:08.733Z,11.63
2023-04-15T14:29:43.485Z,10.75
2023-04-15T14:32:16.834Z,13.00
2023-04-15T14:34:47.938Z,10.93
2023-04-15T14:37:18.264Z,13.50
2023-04-15T14:39:51.008Z,10.80
2023-04-15T14:42:21.444Z,16.13
2023-04-15T14:44:51.630Z,14.52
2023-04-15T14:47:21.905Z,14.80
2023-04-15T14:49:54.712Z,18.83
2023-04-15T14:52:24.931Z,14.60
2023-04-15T14:54:57.703Z,15.15
2023-04-15T14:57:27.893Z,15.80
2023-04-15T14:59:58.076Z,15.85
2023-04-15T15:02:38.256Z,18.47
2023-04-15T15:05:12.794Z,15.63
2023-04-15T15:07:43.656Z,14.55
2023-04-15T15:10:16.681Z,16.93
2023-04-15T15:13:03.149Z,11.63
2023-04-15T15:15:33.400Z,13.32
2023-04-15T15:18:05.033Z,7.82
2023-04-15T15:20:36.258Z,7.28
2023-04-15T15:23:06.632Z,14.38
2023-04-15T15:25:39.571Z,12.25
2023-04-15T15:28:10.897Z,11.03
2023-04-15T15:30:41.178Z,17.75
2023-04-15T15:33:11.404Z,16.55
2023-04-15T15:35:49.744Z,9.88
2023-04-15T15:38:20.740Z,9.32
2023-04-15T15:40:55.175Z,11.32
2023-04-15T15:43:28.037Z,5.93
2023-04-15T15:45:58.713Z,8.15
2023-04-15T15:48:29.413Z,5.78
2023-04-15T15:50:59.584Z,5.90
2023-04-15T15:53:29.858Z,5.40
2023-04-15T15:56:03.894Z,4.47
2023-04-15T15:58:34.422Z,6.00
2023-04-15T16:01:04.858Z,5.17
2023-04-15T16:03:35.430Z,11.40
2023-04-15T16:06:07.167Z,42.50
2023-04-15T16:08:37.549Z,24.63
2023-04-15T16:11:12.652Z,22.40
2023-04-15T16:13:43.014Z,5.90
2023-04-15T16:16:13.230Z,10.93
2023-04-15T16:18:45.588Z,16.13
2023-04-15T16:21:16.567Z,8.15
2023-04-15T16:23:46.977Z,9.53
2023-04-15T16:26:22.401Z,9.63
2023-04-15T16:28:53.952Z,14.57
2023-04-15T16:31:24.323Z,11.02
2023-04-15T16:33:54.559Z,8.73
2023-04-15T16:36:24.790Z,7.67
2023-04-15T16:38:54.994Z,15.70
2023-04-15T16:41:27.840Z,5.68
2023-04-15T16:46:39.606Z,5.03
2023-04-15T17:59:56.092Z,5.87
2023-04-15T18:02:26.390Z,9.40
2023-04-15T18:04:56.972Z,9.70
2023-04-15T18:07:27.213Z,5.77
2023-04-15T18:09:58.259Z,9.70
2023-04-15T18:12:28.439Z,8.00
2023-04-15T18:15:01.481Z,6.87
2023-04-15T18:17:34.490Z,5.60
2023-04-15T18:20:04.814Z,5.50
2023-04-15T18:22:35.112Z,7.13
2023-04-15T18:25:08.177Z,7.20
2023-04-15T18:27:39.813Z,4.77
2023-04-15T18:30:16.955Z,4.27
2023-04-15T18:32:49.777Z,6.77
2023-04-15T18:35:21.332Z,4.67
2023-04-15T18:37:51.541Z,4.40
2023-04-15T18:40:22.000Z,5.60
2023-04-15T18:42:52.685Z,4.43
2023-04-15T18:45:25.597Z,4.50
2023-04-15T18:47:56.013Z,7.13
2023-04-15T18:50:28.830Z,5.63
2023-04-15T18:52:59.010Z,3.40
2023-04-15T18:55:29.558Z,4.00
2023-04-15T21:49:07.572Z,5.37
2023-04-15T23:34:36.813Z,19.50
